Time;durP1;ratioP1;P1;durP2;ratioP2;P2;SDS_P1;SDS_P2;PMS_P1;PMS_P2;Temp;Humidity;BMP_temperature;BMP_pressure;BME280_temperature;BME280_humidity;BME280_pressure;Samples;Min_cycle;Max_cycle;Signal;HPM_P1;HPM_P2
2021/07/26 00:02:23;;;;;;;13.40;12.00;;;;;;;21.26;68.19;100087.41;4902980;28;98277;-68
2021/07/26 00:04:49;;;;;;;13.93;12.55;;;;;;;21.25;68.05;100092.09;4900074;28;103226;-68
2021/07/26 00:07:15;;;;;;;13.30;12.07;;;;;;;21.24;68.19;100092.44;4884243;28;125758;-73
2021/07/26 00:09:41;;;;;;;12.60;11.30;;;;;;;21.24;68.01;100089.72;4885847;28;98061;-74
2021/07/26 00:12:08;;;;;;;12.80;11.60;;;;;;;21.25;68.28;100083.06;4881680;28;127275;-68
2021/07/26 00:14:34;;;;;;;12.73;11.43;;;;;;;21.27;68.04;100089.03;4891658;28;98464;-74
2021/07/26 00:17:00;;;;;;;12.95;11.57;;;;;;;21.28;68.14;100082.38;4902111;28;117919;-73
2021/07/26 00:19:27;;;;;;;12.68;11.48;;;;;;;21.28;68.22;100080.44;4904564;28;97829;-68
2021/07/26 00:21:53;;;;;;;13.52;12.13;;;;;;;21.29;68.06;100073.81;4902148;28;127726;-68
2021/07/26 00:24:19;;;;;;;13.32;11.80;;;;;;;21.29;68.19;100076.53;4903103;28;109226;-74
2021/07/26 00:26:46;;;;;;;14.32;12.00;;;;;;;21.30;68.14;100072.69;4889646;28;113479;-68
2021/07/26 00:29:12;;;;;;;13.90;12.02;;;;;;;21.31;68.03;100074.28;4914745;28;97957;-68
2021/07/26 00:31:38;;;;;;;12.75;11.45;;;;;;;21.32;68.07;100064.09;4893204;28;121383;-68
2021/07/26 00:34:21;;;;;;;13.25;11.88;;;;;;;21.30;67.66;100061.72;4916775;28;129211;-68
2021/07/26 00:36:49;;;;;;;14.27;12.80;;;;;;;21.32;67.93;100073.16;4930641;28;97970;-68
2021/07/26 00:39:18;;;;;;;13.40;12.10;;;;;;;21.30;67.72;100064.47;4901660;28;98112;-68
2021/07/26 00:41:44;;;;;;;13.70;12.40;;;;;;;21.31;67.86;100070.75;4901079;28;98394;-68
2021/07/26 00:44:10;;;;;;;14.38;12.90;;;;;;;21.26;67.97;100068.22;4885219;28;97783;-68
2021/07/26 00:46:36;;;;;;;14.07;12.68;;;;;;;21.21;68.36;100079.44;4914436;28;98064;-68
2021/07/26 00:49:04;;;;;;;14.27;12.90;;;;;;;21.14;68.48;100090.19;4881984;28;97972;-74
2021/07/26 00:51:31;;;;;;;15.02;13.25;;;;;;;21.07;68.32;100090.81;4914713;28;106082;-74
2021/07/26 00:53:57;;;;;;;14.07;12.68;;;;;;;21.01;68.56;100100.41;4901949;28;98299;-74
2021/07/26 00:56:23;;;;;;;13.75;12.27;;;;;;;20.96;68.60;100093.22;4933559;28;99030;-74
2021/07/26 00:58:50;;;;;;;14.65;13.25;;;;;;;20.91;68.79;100089.94;4900500;28;115804;-74
2021/07/26 01:01:17;;;;;;;14.07;12.63;;;;;;;20.82;68.86;100095.50;4901711;28;106340;-69
2021/07/26 01:03:44;;;;;;;13.88;12.57;;;;;;;20.77;69.30;100090.28;4932172;28;97961;-74
2021/07/26 01:06:11;;;;;;;14.55;13.15;;;;;;;20.71;69.42;100088.91;4902110;28;98371;-74
2021/07/26 01:08:37;;;;;;;14.07;12.65;;;;;;;20.68;69.54;100079.47;4902710;28;97841;-75
2021/07/26 01:11:06;;;;;;;14.30;12.68;;;;;;;20.67;69.27;100080.59;4894345;28;126995;-74
2021/07/26 01:13:37;;;;;;;13.95;12.55;;;;;;;20.65;69.02;100082.09;4883244;28;97849;-68
2021/07/26 01:16:04;;;;;;;14.85;13.40;;;;;;;20.65;69.53;100087.56;4893804;28;110093;-69
2021/07/26 01:18:34;;;;;;;14.95;13.45;;;;;;;20.61;69.62;100087.44;4917066;28;98109;-68
2021/07/26 01:21:10;;;;;;;14.75;13.10;;;;;;;20.53;69.38;100086.44;4902419;28;98095;-74
2021/07/26 01:23:41;;;;;;;14.27;12.88;;;;;;;;;;4900780;28;116726;-75
2021/07/26 01:26:08;;;;;;;14.45;12.90;;;;;;;;;;4902322;28;98072;-68
2021/07/26 01:28:37;;;;;;;14.00;12.70;;;;;;;20.53;69.91;100093.84;4900824;28;97807;-68
2021/07/26 01:31:03;;;;;;;15.38;13.88;;;;;;;20.53;69.59;100091.91;4901805;28;98267;-69
2021/07/26 01:33:30;;;;;;;16.95;13.57;;;;;;;20.51;69.73;100090.63;4900493;28;97865;-74
2021/07/26 01:35:56;;;;;;;14.77;13.02;;;;;;;20.46;69.85;100099.06;4883661;28;116882;-74
2021/07/26 01:38:22;;;;;;;15.23;13.80;;;;;;;20.43;70.19;100086.06;4902492;28;97875;-68
2021/07/26 01:40:57;;;;;;;14.43;13.10;;;;;;;20.39;70.30;100090.63;4882870;28;97986;-74
2021/07/26 01:43:25;;;;;;;14.35;12.85;;;;;;;20.37;70.31;100087.44;4885679;28;98151;-69
2021/07/26 01:46:09;;;;;;;14.52;13.02;;;;;;;20.34;69.94;100084.22;4901552;28;98448;-74
2021/07/26 01:48:48;;;;;;;14.40;12.85;;;;;;;20.35;70.04;100083.06;4902657;28;97960;-74
2021/07/26 01:51:40;;;;;;;15.05;13.55;;;;;;;20.33;69.58;100095.53;4930235;28;115896;-74
2021/07/26 01:54:07;;;;;;;14.90;13.32;;;;;;;20.33;70.07;100093.59;4906164;28;107751;-75
2021/07/26 01:56:33;;;;;;;15.70;14.15;;;;;;;20.31;70.36;100100.53;4883754;28;98235;-74
2021/07/26 01:59:00;;;;;;;15.18;13.68;;;;;;;20.26;70.03;100101.56;4916246;28;98102;-74
2021/07/26 02:01:26;;;;;;;16.27;14.68;;;;;;;20.23;70.45;100107.69;4915638;28;124568;-73
2021/07/26 02:03:52;;;;;;;14.82;13.35;;;;;;;20.22;70.24;100106.13;4886171;28;99102;-68
2021/07/26 02:06:18;;;;;;;15.23;13.27;;;;;;;20.21;70.29;100106.47;4883941;28;126392;-75
2021/07/26 02:08:44;;;;;;;15.00;13.50;;;;;;;20.21;70.28;100106.47;4900146;28;116760;-68
2021/07/26 02:11:10;;;;;;;14.52;13.23;;;;;;;20.17;70.36;100102.81;4917264;28;127711;-68
2021/07/26 02:13:36;;;;;;;14.27;12.93;;;;;;;20.15;70.55;100099.59;4904427;28;127971;-68
2021/07/26 02:16:03;;;;;;;14.43;13.02;;;;;;;20.14;70.81;100101.53;4904186;28;126391;-73
2021/07/26 02:18:29;;;;;;;14.85;13.30;;;;;;;20.11;70.25;100111.22;4903699;28;108238;-68
2021/07/26 02:20:55;;;;;;;15.73;14.13;;;;;;;20.11;70.69;100110.44;4896044;28;126143;-74
2021/07/26 02:23:21;;;;;;;18.00;14.07;;;;;;;20.09;70.45;100109.97;4889198;28;127168;-69
2021/07/26 02:25:47;;;;;;;14.88;13.48;;;;;;;20.09;70.55;100109.97;4898564;28;126552;-74
2021/07/26 02:28:13;;;;;;;18.58;14.57;;;;;;;20.07;70.58;100118.50;4866920;28;117513;-68
2021/07/26 02:30:39;;;;;;;15.80;13.50;;;;;;;20.09;70.51;100113.50;4918835;28;127384;-69
2021/07/26 02:33:05;;;;;;;14.95;13.52;;;;;;;20.11;70.22;100107.69;4904012;28;125972;-68
2021/07/26 02:35:31;;;;;;;14.48;13.05;;;;;;;20.11;70.20;100102.22;4902920;28;98201;-74
2021/07/26 02:37:58;;;;;;;14.93;13.48;;;;;;;20.11;70.38;100102.22;4916233;28;98095;-69
2021/07/26 02:40:25;;;;;;;15.85;13.85;;;;;;;20.10;70.77;100104.16;4883847;28;98770;-68
2021/07/26 02:42:51;;;;;;;16.10;13.57;;;;;;;20.09;70.45;100101.78;4924403;28;99293;-68
2021/07/26 02:45:17;;;;;;;15.63;13.68;;;;;;;20.06;70.31;100096.97;4905153;28;97653;-68
2021/07/26 02:47:43;;;;;;;16.50;13.63;;;;;;;20.04;70.34;100100.06;4904793;28;98095;-69
2021/07/26 02:50:11;;;;;;;22.65;15.00;;;;;;;20.03;70.27;100105.84;4901518;28;128993;-68
2021/07/26 02:52:38;;;;;;;18.88;13.98;;;;;;;20.00;70.07;100112.81;4904572;28;99104;-68
2021/07/26 02:55:05;;;;;;;18.45;15.65;;;;;;;19.96;70.33;100120.06;4904366;28;98470;-74
2021/07/26 02:57:33;;;;;;;16.95;15.02;;;;;;;19.95;69.99;100117.69;4903388;28;104738;-74
2021/07/26 02:59:59;;;;;;;16.42;14.82;;;;;;;19.93;70.29;100123.50;4902278;28;98559;-68
2021/07/26 03:02:25;;;;;;;16.17;14.52;;;;;;;19.92;70.04;100126.56;4904434;28;98123;-74
2021/07/26 03:04:51;;;;;;;16.08;14.48;;;;;;;19.89;70.11;100124.53;4903273;28;127533;-74
2021/07/26 03:07:17;;;;;;;15.82;14.07;;;;;;;19.87;70.02;100122.13;4904547;28;99027;-73
2021/07/26 03:09:43;;;;;;;19.60;15.18;;;;;;;19.83;70.37;100122.00;4902563;28;129216;-74
2021/07/26 03:12:10;;;;;;;16.33;14.63;;;;;;;19.81;70.28;100129.75;4902148;28;106410;-68
2021/07/26 03:14:36;;;;;;;16.88;15.27;;;;;;;19.79;70.13;100123.00;4885348;28;98045;-69
2021/07/26 03:17:03;;;;;;;15.43;13.93;;;;;;;19.79;70.60;100129.28;4903528;28;106967;-73
2021/07/26 03:19:31;;;;;;;15.93;14.38;;;;;;;19.80;70.45;100130.06;4904231;28;98530;-69
2021/07/26 03:22:53;;;;;;;15.20;13.63;;;;;;;19.77;70.10;100130.75;4901992;28;100045;-74
2021/07/26 03:25:20;;;;;;;17.00;14.50;;;;;;;19.78;70.38;100132.34;4886368;28;98059;-68
2021/07/26 03:27:48;;;;;;;15.93;14.40;;;;;;;19.77;70.52;100134.28;4904375;28;97975;-69
2021/07/26 03:30:17;;;;;;;16.25;14.70;;;;;;;19.76;70.59;100137.34;4921455;28;98047;-73
2021/07/26 03:32:46;;;;;;;15.30;13.70;;;;;;;19.76;70.56;100140.06;4887135;28;98166;-68
2021/07/26 03:35:13;;;;;;;15.25;13.85;;;;;;;19.77;70.55;100144.44;4901247;28;115101;-74
2021/07/26 03:37:40;;;;;;;16.77;14.90;;;;;;;19.76;70.62;100146.34;4887969;28;97962;-74
2021/07/26 03:40:07;;;;;;;15.80;14.20;;;;;;;19.77;70.59;100147.16;4886121;28;98395;-68
2021/07/26 03:42:34;;;;;;;15.25;13.65;;;;;;;19.79;70.67;100153.09;4886532;28;98122;-74
2021/07/26 03:45:01;;;;;;;15.98;14.43;;;;;;;19.79;70.42;100145.69;4900910;28;97901;-69
2021/07/26 03:47:27;;;;;;;15.98;14.45;;;;;;;19.79;70.53;100147.63;4904465;28;98077;-74
2021/07/26 03:49:54;;;;;;;15.07;13.48;;;;;;;19.78;70.35;100149.56;4903972;28;100798;-69
2021/07/26 03:52:20;;;;;;;15.13;13.75;;;;;;;19.78;70.42;100146.81;4903301;28;108514;-69
2021/07/26 03:54:46;;;;;;;16.35;14.75;;;;;;;19.80;70.26;100150.00;4902585;28;98005;-73
2021/07/26 03:57:12;;;;;;;15.73;14.13;;;;;;;19.81;70.46;100142.63;4902195;28;116361;-74
2021/07/26 03:59:38;;;;;;;15.82;14.15;;;;;;;19.82;70.54;100152.41;4900775;28;126145;-69
2021/07/26 04:02:04;;;;;;;15.30;13.80;;;;;;;19.83;70.16;100152.06;4902636;28;128369;-69
2021/07/26 04:04:30;;;;;;;16.38;13.57;;;;;;;19.86;70.19;100148.66;4933626;28;99322;-74
2021/07/26 04:07:04;;;;;;;16.58;14.98;;;;;;;19.90;70.17;100148.78;4934748;28;97977;-73
2021/07/26 04:09:39;;;;;;;14.93;13.43;;;;;;;19.95;70.13;100150.50;4903768;28;98736;-74
2021/07/26 04:12:08;;;;;;;16.63;14.48;;;;;;;20.02;69.87;100157.03;4871864;28;100130;-69
2021/07/26 04:14:40;;;;;;;16.17;14.55;;;;;;;20.08;70.08;100154.88;4900849;28;98848;-75
2021/07/26 04:17:06;;;;;;;15.98;14.48;;;;;;;20.13;69.68;100156.63;4902641;28;97849;-69
2021/07/26 04:19:33;;;;;;;16.73;14.98;;;;;;;20.16;69.74;100147.72;4885093;28;99636;-73
2021/07/26 04:21:59;;;;;;;15.95;14.35;;;;;;;20.20;69.82;100149.44;4901326;28;98456;-74
2021/07/26 04:24:25;;;;;;;16.80;15.10;;;;;;;20.27;69.92;100137.91;4902166;28;127342;-74
2021/07/26 04:26:52;;;;;;;17.25;15.55;;;;;;;20.32;69.73;100143.19;4903287;28;115505;-73
2021/07/26 04:29:19;;;;;;;18.02;16.23;;;;;;;20.37;69.75;100145.69;4884845;28;98040;-73
2021/07/26 04:31:46;;;;;;;17.20;15.63;;;;;;;20.41;69.63;100145.81;4903471;28;98250;-74
2021/07/26 04:34:12;;;;;;;17.65;15.95;;;;;;;20.46;69.71;100145.59;4903246;28;106546;-69
2021/07/26 04:36:38;;;;;;;17.67;15.77;;;;;;;20.49;69.47;100147.69;4884271;28;97774;-68
2021/07/26 04:39:04;;;;;;;19.77;17.85;;;;;;;20.51;69.58;100161.81;4931284;28;123206;-74
2021/07/26 04:41:32;;;;;;;18.92;17.02;;;;;;;20.53;69.57;100163.06;4907338;28;128016;-73
2021/07/26 04:43:58;;;;;;;19.20;17.23;;;;;;;20.56;69.50;100172.56;4897707;28;102416;-69
2021/07/26 04:46:24;;;;;;;17.60;15.93;;;;;;;20.59;69.38;100177.31;4897496;28;117210;-74
2021/07/26 04:48:50;;;;;;;20.42;18.33;;;;;;;20.59;69.25;100185.53;4898375;28;126207;-69
2021/07/26 04:51:16;;;;;;;19.80;17.88;;;;;;;20.59;69.63;100172.69;4899751;28;107856;-69
2021/07/26 04:53:42;;;;;;;19.48;17.67;;;;;;;20.59;69.56;100161.72;4899589;28;122937;-74
2021/07/26 04:56:08;;;;;;;21.25;19.20;;;;;;;20.61;69.70;100161.38;4899083;28;117517;-73
2021/07/26 04:58:34;;;;;;;20.83;18.83;;;;;;;20.65;69.66;100166.97;4898533;28;127363;-69
2021/07/26 05:01:01;;;;;;;21.08;18.92;;;;;;;20.68;69.63;100166.28;4899639;28;98663;-69
2021/07/26 05:03:27;;;;;;;21.33;19.27;;;;;;;20.69;69.73;100157.72;4899775;28;97987;-69
2021/07/26 05:05:53;;;;;;;20.65;18.65;;;;;;;20.76;69.94;100163.44;4899488;28;98101;-73
2021/07/26 05:08:19;;;;;;;20.52;18.40;;;;;;;20.86;69.73;100155.88;4898555;28;127208;-73
2021/07/26 05:10:48;;;;;;;21.13;18.92;;;;;;;20.93;69.47;100156.09;4882076;28;111424;-74
2021/07/26 05:13:15;;;;;;;19.48;17.67;;;;;;;21.04;69.22;100158.03;4916620;28;127782;-73
2021/07/26 05:15:41;;;;;;;21.25;19.15;;;;;;;21.18;69.27;100159.59;4901253;28;97718;-73
2021/07/26 05:18:07;;;;;;;20.77;18.73;;;;;;;21.30;69.00;100157.66;4901189;28;127661;-70
2021/07/26 05:20:34;;;;;;;21.27;19.17;;;;;;;21.46;68.59;100156.94;4899283;28;114914;-69
2021/07/26 05:23:00;;;;;;;19.42;17.42;;;;;;;21.63;68.49;100156.66;4902375;28;98309;-69
2021/07/26 05:25:26;;;;;;;23.15;18.90;;;;;;;21.83;67.93;100152.09;4901010;28;98469;-73
2021/07/26 05:27:52;;;;;;;20.73;18.63;;;;;;;22.01;67.31;100149.84;4901252;28;125761;-69
2021/07/26 05:30:18;;;;;;;19.95;17.95;;;;;;;22.18;66.99;100154.22;4911945;28;99248;-69
2021/07/26 05:32:44;;;;;;;19.98;17.98;;;;;;;22.37;66.71;100150.78;4882737;28;127683;-74
2021/07/26 05:35:10;;;;;;;18.70;16.85;;;;;;;22.57;66.17;100146.19;4913837;28;97824;-69
2021/07/26 05:37:36;;;;;;;17.10;15.40;;;;;;;22.73;65.83;100147.75;4882475;28;116900;-69
2021/07/26 05:40:04;;;;;;;17.05;15.45;;;;;;;22.93;65.31;100153.31;4882084;28;127938;-73
2021/07/26 05:42:30;;;;;;;16.38;14.77;;;;;;;23.11;64.79;100146.28;4898295;28;98237;-69
2021/07/26 05:44:56;;;;;;;16.05;14.48;;;;;;;23.30;64.71;100158.44;4901871;28;98049;-73
2021/07/26 05:47:22;;;;;;;16.27;14.65;;;;;;;23.46;64.25;100150.91;4902698;28;98189;-71
2021/07/26 05:49:48;;;;;;;15.75;14.15;;;;;;;23.63;64.06;100147.75;4916118;28;105981;-72
2021/07/26 05:52:14;;;;;;;16.42;14.75;;;;;;;23.82;64.68;100154.44;4899278;28;126655;-73
2021/07/26 05:54:40;;;;;;;15.52;14.07;;;;;;;24.00;64.11;100150.84;4900284;28;98032;-74
2021/07/26 05:57:12;;;;;;;15.80;14.23;;;;;;;24.21;64.45;100152.41;4932351;28;128200;-73
2021/07/26 05:59:38;;;;;;;15.13;12.65;;;;;;;24.45;62.59;100151.25;4900161;28;98437;-70
2021/07/26 06:02:04;;;;;;;14.23;12.93;;;;;;;24.58;62.67;100152.63;4900081;28;98085;-73
2021/07/26 06:04:30;;;;;;;14.75;12.07;;;;;;;24.50;62.24;100156.44;4933805;28;97922;-72
2021/07/26 06:06:58;;;;;;;15.70;12.63;;;;;;;24.94;62.19;100155.94;4900377;28;98491;-73
2021/07/26 06:09:24;;;;;;;14.40;12.57;;;;;;;25.85;59.98;100163.06;4899751;28;98189;-73
2021/07/26 06:11:51;;;;;;;12.27;11.18;;;;;;;26.47;57.79;100168.03;4915444;28;97926;-70
2021/07/26 06:14:18;;;;;;;12.43;10.95;;;;;;;28.28;54.18;100175.63;4902255;28;97676;-73
2021/07/26 06:16:52;;;;;;;12.60;11.30;;;;;;;29.45;52.38;100164.81;4915314;28;109289;-73
2021/07/26 06:19:19;;;;;;;11.95;10.75;;;;;;;30.07;49.48;100167.69;4902088;28;98571;-69
2021/07/26 06:21:53;;;;;;;11.65;10.50;;;;;;;31.01;48.20;100165.75;4931292;28;120547;-74
2021/07/26 06:24:21;;;;;;;11.10;10.10;;;;;;;31.11;46.98;100164.03;4914296;28;98030;-69
2021/07/26 06:26:47;;;;;;;11.10;9.75;;;;;;;31.42;45.70;100172.47;4880520;28;99728;-69
2021/07/26 06:29:13;;;;;;;10.68;9.68;;;;;;;32.43;44.59;100179.03;4882544;28;98390;-69
2021/07/26 06:31:42;;;;;;;9.25;8.05;;;;;;;32.40;43.20;100171.50;4896841;28;98326;-69
2021/07/26 06:34:09;;;;;;;9.23;7.93;;;;;;;32.90;42.70;100164.28;4883204;28;98160;-73
2021/07/26 06:36:36;;;;;;;8.73;7.40;;;;;;;33.46;41.97;100165.19;4881960;28;99242;-74
2021/07/26 06:39:03;;;;;;;10.02;7.30;;;;;;;34.16;40.09;100163.28;4897608;28;98747;-73
2021/07/26 06:41:29;;;;;;;7.85;7.13;;;;;;;34.07;39.64;100157.50;4903898;28;113153;-74
2021/07/26 06:43:55;;;;;;;7.60;6.90;;;;;;;34.10;39.60;100153.81;4902689;28;98973;-75
2021/07/26 06:46:21;;;;;;;7.35;6.40;;;;;;;34.53;39.39;100158.38;4904374;28;107179;-68
2021/07/26 06:48:47;;;;;;;7.55;6.85;;;;;;;35.05;38.03;100163.03;4903603;28;128001;-74
2021/07/26 06:51:13;;;;;;;8.52;6.47;;;;;;;35.35;38.18;100164.56;4904878;28;97925;-69
2021/07/26 06:53:39;;;;;;;6.88;6.22;;;;;;;35.44;37.20;100167.50;4904380;28;114378;-68
2021/07/26 06:56:07;;;;;;;6.90;6.13;;;;;;;35.66;36.31;100150.88;4902855;28;105340;-68
2021/07/26 06:58:37;;;;;;;7.53;6.07;;;;;;;35.91;37.18;100161.31;4904290;28;99012;-68
2021/07/26 07:01:04;;;;;;;6.43;5.78;;;;;;;35.80;36.22;100158.81;4904101;28;110625;-68
2021/07/26 07:03:30;;;;;;;6.63;6.03;;;;;;;35.24;37.04;100167.69;4903456;28;97953;-74
2021/07/26 07:06:08;;;;;;;6.65;5.95;;;;;;;34.34;39.27;100163.59;4900264;28;97968;-74
2021/07/26 07:08:34;;;;;;;7.38;5.68;;;;;;;33.53;39.38;100160.69;4885120;28;98591;-74
2021/07/26 07:11:16;;;;;;;8.07;5.70;;;;;;;32.80;40.81;100162.47;4884505;28;108952;-68
2021/07/26 07:13:47;;;;;;;7.55;6.03;;;;;;;32.39;41.27;100163.53;4914754;28;97867;-68
2021/07/26 07:16:31;;;;;;;7.07;5.47;;;;;;;32.17;41.74;100169.44;4884749;28;98584;-68
2021/07/26 07:18:57;;;;;;;6.97;5.80;;;;;;;32.17;42.25;100177.03;4884907;28;98825;-74
2021/07/26 07:21:26;;;;;;;6.65;5.93;;;;;;;32.23;41.75;100167.00;4884266;28;98518;-68
2021/07/26 07:23:52;;;;;;;7.53;6.28;;;;;;;32.33;41.55;100163.22;4886168;28;97812;-74
2021/07/26 07:26:19;;;;;;;6.57;5.97;;;;;;;32.41;40.16;100169.50;4884233;28;115209;-74
2021/07/26 07:28:46;;;;;;;5.93;5.32;;;;;;;32.54;40.71;100169.69;4883060;28;117434;-68
2021/07/26 07:31:17;;;;;;;7.22;5.80;;;;;;;32.52;40.58;100166.53;4884590;28;98417;-73
2021/07/26 07:33:44;;;;;;;;;;;;;;;32.43;41.56;100161.50;4885664;28;98119;-73
2021/07/26 07:36:10;;;;;;;6.85;5.47;;;;;;;32.23;41.15;100156.63;4884766;28;98410;-68
2021/07/26 07:38:36;;;;;;;7.45;5.85;;;;;;;32.36;41.31;100159.59;4884437;28;99236;-74
2021/07/26 07:41:04;;;;;;;7.47;5.70;;;;;;;32.52;41.15;100160.97;4888741;28;98785;-68
2021/07/26 07:43:31;;;;;;;7.45;5.53;;;;;;;32.66;39.98;100161.50;4904615;28;97913;-67
2021/07/26 07:45:58;;;;;;;5.72;5.10;;;;;;;32.88;39.73;100161.91;4903856;28;98204;-68
2021/07/26 07:48:24;;;;;;;6.53;5.40;;;;;;;32.94;39.15;100173.41;4903622;28;99008;-68
2021/07/26 07:50:51;;;;;;;6.32;5.53;;;;;;;33.03;39.07;100181.19;4903040;28;98468;-74
2021/07/26 07:53:18;;;;;;;6.65;5.40;;;;;;;32.54;40.57;100181.66;4905200;28;97906;-73
2021/07/26 07:55:44;;;;;;;6.30;5.20;;;;;;;32.69;39.88;100182.16;4903384;28;112462;-73
2021/07/26 07:58:11;;;;;;;5.75;5.15;;;;;;;33.41;38.91;100176.84;4902734;28;128155;-74
2021/07/26 08:00:37;;;;;;;6.05;5.15;;;;;;;34.39;36.90;100182.69;4902078;28;98672;-74
2021/07/26 08:03:03;;;;;;;5.55;5.07;;;;;;;35.42;35.48;100189.59;4933699;28;98027;-68
2021/07/26 08:05:29;;;;;;;6.05;5.50;;;;;;;36.25;34.88;100188.69;4918088;28;98413;-68
2021/07/26 08:07:56;;;;;;;6.03;5.00;;;;;;;36.79;33.66;100187.72;4903611;28;97959;-68
2021/07/26 08:10:22;;;;;;;7.45;5.20;;;;;;;37.55;32.46;100183.00;4903552;28;99194;-68
2021/07/26 08:12:49;;;;;;;6.18;5.22;;;;;;;38.28;31.47;100188.97;4902487;28;98238;-68
2021/07/26 08:15:15;;;;;;;5.57;4.75;;;;;;;38.88;30.47;100184.88;4903689;28;97995;-75
2021/07/26 08:17:43;;;;;;;5.05;4.65;;;;;;;39.60;29.45;100190.91;4904073;28;97708;-69
2021/07/26 08:20:11;;;;;;;6.20;4.47;;;;;;;40.22;28.76;100189.59;4903081;28;100367;-68
2021/07/26 08:22:37;;;;;;;5.13;4.50;;;;;;;40.60;27.38;100186.09;4904416;28;97963;-75
2021/07/26 08:25:04;;;;;;;5.20;4.70;;;;;;;41.16;26.97;100186.44;4902968;28;98456;-68
2021/07/26 08:27:30;;;;;;;5.43;4.53;;;;;;;41.95;26.47;100193.47;4900775;28;115621;-75
2021/07/26 08:29:56;;;;;;;6.05;4.93;;;;;;;42.51;25.37;100180.88;4885138;28;101337;-75
2021/07/26 08:32:23;;;;;;;5.50;4.72;;;;;;;43.03;24.11;100181.00;4904352;28;97840;-68
2021/07/26 08:34:49;;;;;;;5.95;4.50;;;;;;;43.26;24.29;100187.69;4901593;28;127507;-77
2021/07/26 08:37:26;;;;;;;6.32;4.38;;;;;;;43.56;23.93;100193.94;4902409;28;123221;-68
2021/07/26 08:39:52;;;;;;;4.97;4.30;;;;;;;43.90;22.91;100196.25;4902901;28;107370;-75
2021/07/26 08:42:18;;;;;;;4.95;4.40;;;;;;;44.10;23.12;100188.41;4903280;28;117891;-68
2021/07/26 08:44:44;;;;;;;4.80;4.30;;;;;;;44.25;22.58;100184.59;4884000;28;128069;-76
2021/07/26 08:47:10;;;;;;;4.20;3.85;;;;;;;43.90;22.61;100176.41;4902318;28;126827;-76
2021/07/26 08:49:36;;;;;;;4.38;3.97;;;;;;;43.77;22.31;100165.47;4899941;28;127447;-76
2021/07/26 08:52:02;;;;;;;4.05;3.72;;;;;;;43.67;22.62;100170.56;4868651;28;118223;-68
2021/07/26 08:54:30;;;;;;;4.15;3.78;;;;;;;43.65;22.44;100164.59;4884668;28;109336;-76
2021/07/26 08:56:56;;;;;;;4.57;3.92;;;;;;;43.78;22.87;100170.66;4901580;28;98260;-76
2021/07/26 08:59:22;;;;;;;4.20;3.90;;;;;;;44.36;22.15;100159.16;4902725;28;98458;-76
2021/07/26 09:01:48;;;;;;;4.32;3.92;;;;;;;45.06;21.59;100168.97;4901226;28;98395;-76
2021/07/26 09:04:15;;;;;;;4.43;4.03;;;;;;;45.65;20.82;100172.91;4900496;28;127430;-76
2021/07/26 09:06:42;;;;;;;4.45;4.05;;;;;;;46.27;19.75;100156.50;4901136;28;98316;-76
2021/07/26 09:09:08;;;;;;;4.50;4.10;;;;;;;46.69;19.93;100158.16;4900647;28;97919;-76
2021/07/26 09:11:44;;;;;;;4.38;3.97;;;;;;;47.10;20.37;100154.53;4901565;28;118274;-68
2021/07/26 09:14:11;;;;;;;4.70;4.13;;;;;;;47.15;19.82;100155.78;4902498;28;97788;-67
2021/07/26 09:16:37;;;;;;;4.32;3.75;;;;;;;47.25;19.35;100150.56;4901254;28;98302;-74
2021/07/26 09:19:06;;;;;;;4.00;3.60;;;;;;;46.92;19.04;100147.38;4883327;28;125568;-74
2021/07/26 09:21:52;;;;;;;4.28;3.67;;;;;;;47.04;19.65;100164.44;4903447;28;98055;-66
2021/07/26 09:24:28;;;;;;;4.53;4.03;;;;;;;46.65;19.77;100154.00;4902278;28;98375;-66
2021/07/26 09:27:06;;;;;;;3.95;3.55;;;;;;;45.94;19.50;100155.28;4883504;28;114647;-66
2021/07/26 09:29:32;;;;;;;6.18;4.00;;;;;;;45.23;20.11;100149.84;4885280;28;107510;-66
2021/07/26 09:32:03;;;;;;;4.38;3.60;;;;;;;44.71;20.64;100146.66;4902259;28;101696;-66
2021/07/26 09:34:30;;;;;;;4.10;3.60;;;;;;;44.36;20.49;100147.00;4901765;28;98582;-66
2021/07/26 09:36:56;;;;;;;3.78;3.28;;;;;;;44.25;20.83;100144.88;4901240;28;123960;-74
2021/07/26 09:39:27;;;;;;;4.53;3.55;;;;;;;44.40;20.90;100144.72;4899084;28;109897;-66
2021/07/26 09:41:55;;;;;;;3.90;3.60;;;;;;;44.80;20.08;100149.25;4868877;28;97920;-66
2021/07/26 09:44:23;;;;;;;3.72;3.38;;;;;;;45.26;19.97;100148.06;4902025;28;99359;-66
2021/07/26 09:46:50;;;;;;;3.83;3.28;;;;;;;45.63;19.76;100159.19;4902070;28;98161;-66
2021/07/26 09:49:18;;;;;;;4.00;3.38;;;;;;;46.16;19.48;100159.38;4901966;28;98388;-66
2021/07/26 09:52:08;;;;;;;3.53;3.17;;;;;;;46.34;18.53;100155.16;4900614;28;98042;-66
2021/07/26 09:54:46;;;;;;;3.60;3.30;;;;;;;47.12;18.74;100143.38;4899615;28;98328;-74
2021/07/26 09:57:26;;;;;;;3.40;3.10;;;;;;;47.44;18.49;100142.91;4900455;28;99101;-66
2021/07/26 09:59:52;;;;;;;4.47;3.30;;;;;;;44.51;20.53;100141.91;4901277;28;98855;-66
2021/07/26 10:02:20;;;;;;;4.03;3.63;;;;;;;43.91;20.90;100132.59;4902012;28;98014;-74
2021/07/26 10:04:47;;;;;;;3.75;3.42;;;;;;;44.70;19.83;100136.59;4901632;28;98495;-74
2021/07/26 10:07:15;;;;;;;3.65;3.35;;;;;;;45.09;19.47;100136.69;4899704;28;98843;-73
2021/07/26 10:09:42;;;;;;;3.80;3.50;;;;;;;42.59;21.70;100130.28;4900103;28;99924;-66
2021/07/26 10:12:15;;;;;;;4.05;3.45;;;;;;;42.63;21.22;100128.78;4899848;28;98048;-76
2021/07/26 10:14:42;;;;;;;3.83;3.40;;;;;;;41.43;22.54;100128.88;4905232;28;98346;-75
2021/07/26 10:17:09;;;;;;;4.55;4.13;;;;;;;41.79;22.70;100124.03;4905340;28;99172;-66
2021/07/26 10:19:36;;;;;;;6.32;4.00;;;;;;;42.75;21.56;100128.94;4902673;28;127573;-66
2021/07/26 10:22:06;;;;;;;3.95;3.65;;;;;;;42.43;22.51;100120.31;4904498;28;117909;-75
2021/07/26 10:24:37;;;;;;;4.30;4.00;;;;;;;43.76;21.04;100129.88;4903579;28;118427;-75
2021/07/26 10:27:09;;;;;;;5.45;3.95;;;;;;;44.02;21.17;100130.59;4903217;28;104423;-75
2021/07/26 10:29:55;;;;;;;4.10;3.70;;;;;;;44.58;21.11;100128.00;4902681;28;114795;-76
2021/07/26 10:32:30;;;;;;;4.55;4.07;;;;;;;45.08;20.49;100122.97;4894793;28;98297;-75
2021/07/26 10:35:19;;;;;;;4.25;3.85;;;;;;;45.28;19.72;100117.06;4904730;28;99615;-75
2021/07/26 10:37:46;;;;;;;4.47;4.07;;;;;;;45.45;20.09;100131.28;4873621;28;98475;-66
2021/07/26 10:40:26;;;;;;;6.30;4.25;;;;;;;43.32;22.20;100111.22;4885105;28;99156;-65
2021/07/26 10:42:53;;;;;;;4.68;4.22;;;;;;;43.96;21.53;100118.41;4896408;28;110332;-66
2021/07/26 10:45:34;;;;;;;4.70;4.18;;;;;;;44.45;21.65;100119.19;4904276;28;99509;-65
2021/07/26 10:48:28;;;;;;;4.72;4.30;;;;;;;43.00;22.25;100105.50;4905063;28;98237;-65
2021/07/26 10:50:59;;;;;;;4.70;4.30;;;;;;;43.64;21.97;100122.56;4904321;28;97997;-65
2021/07/26 10:53:37;;;;;;;4.45;3.97;;;;;;;42.92;22.57;100114.94;4902834;28;98040;-75
2021/07/26 10:56:11;;;;;;;5.10;4.30;;;;;;;43.35;21.32;100104.53;4904704;28;98404;-65
2021/07/26 10:58:40;;;;;;;4.15;3.80;;;;;;;43.57;21.94;100115.31;4904264;28;98482;-76
2021/07/26 11:01:21;;;;;;;4.40;4.00;;;;;;;43.02;21.75;100113.50;4904002;28;98214;-65
2021/07/26 11:03:57;;;;;;;5.43;3.60;;;;;;;41.89;23.05;100100.78;4904708;28;97739;-76
2021/07/26 11:09:32;;;;;;;3.80;3.40;;;;;;;43.96;20.71;100109.13;4902423;28;98595;-66
2021/07/26 11:11:58;;;;;;;4.30;3.20;;;;;;;44.13;19.77;100101.47;4901926;28;97832;-76
2021/07/26 11:14:24;;;;;;;4.45;3.50;;;;;;;44.35;19.90;100097.97;4903024;28;98056;-66
2021/07/26 11:19:35;;;;;;;4.18;3.78;;;;;;;44.04;20.86;100093.94;4901859;28;98241;-75
2021/07/26 11:22:03;;;;;;;4.28;3.88;;;;;;;43.75;20.91;100080.09;4903442;28;97818;-66
2021/07/26 11:24:42;;;;;;;3.70;3.40;;;;;;;42.67;22.39;100088.16;4904581;28;98322;-76
2021/07/26 11:27:09;;;;;;;5.90;3.88;;;;;;;42.77;22.68;100086.75;4904037;28;104864;-66